Time;durP1;ratioP1;P1;durP2;ratioP2;P2;SDS_P1;SDS_P2;PMS_P1;PMS_P2;Temp;Humidity;BMP_temperature;BMP_pressure;BME280_temperature;BME280_humidity;BME280_pressure;Samples;Min_cycle;Max_cycle;Signal;HPM_P1;HPM_P2
2021/03/09 00:01:25;;;;;;;28.93;14.40;;;5.50;84.30;;;;;;5072630;28;20061;-81
2021/03/09 00:03:50;;;;;;;26.93;14.17;;;5.40;84.60;;;;;;5072539;28;20021;-79
2021/03/09 00:06:16;;;;;;;28.07;14.40;;;5.40;84.60;;;;;;5056002;28;20029;-81
2021/03/09 00:08:41;;;;;;;28.53;14.77;;;5.30;84.70;;;;;;5055972;28;20031;-81
2021/03/09 00:11:07;;;;;;;29.97;14.47;;;5.30;84.80;;;;;;5073896;28;20024;-81
2021/03/09 00:13:33;;;;;;;26.70;13.90;;;5.30;84.40;;;;;;5072465;28;20066;-81
2021/03/09 00:15:58;;;;;;;28.30;12.77;;;5.30;85.10;;;;;;5055639;28;20392;-81
2021/03/09 00:18:24;;;;;;;28.03;12.97;;;5.30;85.90;;;;;;5072345;28;20077;-80
2021/03/09 00:20:49;;;;;;;30.83;13.60;;;5.30;85.20;;;;;;5073353;28;20047;-81
2021/03/09 00:23:15;;;;;;;27.40;12.90;;;5.30;85.30;;;;;;5072196;28;20025;-81
2021/03/09 00:25:40;;;;;;;23.93;10.50;;;5.30;85.50;;;;;;5072232;28;20025;-81
2021/03/09 00:28:06;;;;;;;23.20;11.57;;;5.20;85.00;;;;;;5072339;28;20119;-81
2021/03/09 00:30:32;;;;;;;23.17;10.87;;;5.20;85.10;;;;;;5072293;28;20064;-81
2021/03/09 00:32:57;;;;;;;26.20;12.47;;;5.20;85.70;;;;;;5072042;28;20020;-81
2021/03/09 00:35:23;;;;;;;23.97;11.27;;;5.20;85.70;;;;;;5072042;28;20103;-81
2021/03/09 00:37:48;;;;;;;29.17;11.67;;;5.20;85.90;;;;;;5071957;28;20159;-81
2021/03/09 00:40:14;;;;;;;27.37;12.57;;;5.20;85.50;;;;;;5073258;28;20114;-79
2021/03/09 00:42:41;;;;;;;24.47;12.47;;;5.20;86.50;;;;;;5071798;28;20066;-80
2021/03/09 00:45:07;;;;;;;24.90;13.20;;;5.10;86.50;;;;;;5073142;28;20375;-81
2021/03/09 00:47:32;;;;;;;27.87;13.63;;;5.10;86.70;;;;;;5055276;28;20032;-81
2021/03/09 00:49:59;;;;;;;25.93;13.33;;;5.10;86.70;;;;;;5055130;28;20085;-80
2021/03/09 00:52:24;;;;;;;30.83;15.30;;;5.10;86.90;;;;;;5055180;28;20029;-81
2021/03/09 00:54:50;;;;;;;27.20;13.73;;;5.10;86.70;;;;;;5072954;28;20037;-80
2021/03/09 00:57:15;;;;;;;26.90;13.83;;;5.10;86.70;;;;;;5073179;28;20025;-82
2021/03/09 00:59:41;;;;;;;28.83;13.33;;;5.10;87.30;;;;;;5071767;28;20035;-81
2021/03/09 01:02:07;;;;;;;29.97;14.80;;;5.20;87.30;;;;;;5055042;28;20036;-81
2021/03/09 01:04:33;;;;;;;30.90;15.50;;;5.10;87.50;;;;;;5071683;28;20021;-80
2021/03/09 01:06:58;;;;;;;30.90;14.83;;;5.10;87.70;;;;;;5072921;28;20392;-80
2021/03/09 01:09:24;;;;;;;27.57;14.83;;;5.10;88.10;;;;;;5071435;28;20025;-82
2021/03/09 01:11:49;;;;;;;28.33;13.97;;;5.10;88.60;;;;;;5072698;28;20028;-81
2021/03/09 01:14:15;;;;;;;29.20;15.37;;;5.00;88.20;;;;;;5073024;28;20036;-81
2021/03/09 01:16:41;;;;;;;32.53;15.80;;;5.10;88.50;;;;;;5071502;28;20044;-82
2021/03/09 01:19:06;;;;;;;31.17;15.57;;;5.00;88.20;;;;;;5071406;28;20017;-82
2021/03/09 01:21:32;;;;;;;31.57;16.33;;;5.00;88.80;;;;;;5054673;28;20401;-84
2021/03/09 01:23:57;;;;;;;35.10;17.93;;;4.90;89.00;;;;;;5054727;28;20024;-82
2021/03/09 01:26:24;;;;;;;35.40;17.53;;;5.00;88.80;;;;;;5071622;28;20473;-82
2021/03/09 01:28:50;;;;;;;35.30;18.50;;;4.90;89.40;;;;;;5071514;28;20032;-81
2021/03/09 01:31:15;;;;;;;42.53;20.73;;;4.90;90.00;;;;;;5071288;28;20055;-81
2021/03/09 01:33:41;;;;;;;41.73;20.47;;;4.90;90.20;;;;;;5072673;28;20031;-82
2021/03/09 01:36:07;;;;;;;36.23;18.70;;;4.90;90.30;;;;;;5071470;28;20033;-82
2021/03/09 01:38:33;;;;;;;39.80;21.10;;;4.90;90.40;;;;;;5071652;28;20404;-82
2021/03/09 01:40:59;;;;;;;47.60;22.23;;;4.80;91.20;;;;;;5072622;28;20037;-83
2021/03/09 01:43:25;;;;;;;42.87;21.87;;;4.80;91.20;;;;;;5072587;28;20379;-83
2021/03/09 01:45:50;;;;;;;50.07;22.10;;;4.80;91.30;;;;;;5054749;28;20115;-80
2021/03/09 01:48:20;;;;;;;49.37;24.23;;;4.80;91.30;;;;;;5054463;28;20074;-80
2021/03/09 01:50:46;;;;;;;53.23;25.93;;;4.70;91.30;;;;;;5072499;28;20025;-82
2021/03/09 01:53:13;;;;;;;50.93;26.63;;;4.70;91.50;;;;;;5071178;28;20040;-82
2021/03/09 01:55:40;;;;;;;54.77;26.23;;;4.70;91.70;;;;;;5075023;28;20028;-83
2021/03/09 01:58:10;;;;;;;51.67;26.77;;;4.70;92.00;;;;;;5075084;28;20056;-84
2021/03/09 02:00:37;;;;;;;59.27;27.27;;;4.70;92.40;;;;;;5075020;28;20028;-83
2021/03/09 02:03:03;;;;;;;57.00;28.73;;;4.60;92.40;;;;;;5058557;28;20482;-84
2021/03/09 02:05:28;;;;;;;61.27;27.50;;;4.60;92.70;;;;;;5074902;28;20032;-83
2021/03/09 02:07:54;;;;;;;59.57;29.50;;;4.60;92.70;;;;;;5058303;28;20074;-82
2021/03/09 02:10:21;;;;;;;56.40;26.97;;;4.60;93.00;;;;;;5058223;28;20464;-84
2021/03/09 02:13:36;;;;;;;55.53;26.97;;;4.50;93.00;;;;;;5074824;28;20028;-84
2021/03/09 02:16:11;;;;;;;57.58;27.73;;;4.50;93.20;;;;;;5073795;28;20028;-84
2021/03/09 02:19:12;;;;;;;56.07;26.77;;;4.50;93.40;;;;;;5073927;28;20037;-84
2021/03/09 02:21:56;;;;;;;61.63;28.17;;;4.50;93.40;;;;;;5075774;28;20138;-83
2021/03/09 02:24:58;;;;;;;61.22;30.05;;;4.50;93.50;;;;;;5075872;28;20036;-81
2021/03/09 02:27:52;;;;;;;57.67;27.40;;;4.50;93.70;;;;;;5073756;28;20029;-82
2021/03/09 02:30:26;;;;;;;57.47;27.40;;;4.50;93.60;;;;;;5074614;28;20070;-81
2021/03/09 02:33:09;;;;;;;65.38;29.50;;;4.40;93.60;;;;;;5074385;28;20393;-83
2021/03/09 02:35:40;;;;;;;56.60;26.67;;;4.50;93.60;;;;;;5075621;28;20020;-82
2021/03/09 02:38:08;;;;;;;60.97;28.03;;;4.50;93.70;;;;;;5075690;28;20024;-84
2021/03/09 02:40:34;;;;;;;63.30;30.60;;;4.50;93.70;;;;;;5074246;28;20016;-83
2021/03/09 02:43:10;;;;;;;57.50;28.80;;;4.50;93.70;;;;;;5074431;28;20025;-81
2021/03/09 02:45:37;;;;;;;60.80;28.37;;;4.60;93.70;;;;;;5075521;28;20017;-84
2021/03/09 02:48:06;;;;;;;62.03;30.40;;;4.60;93.70;;;;;;5074051;28;20047;-82
2021/03/09 02:50:33;;;;;;;63.57;32.10;;;4.60;93.80;;;;;;5074215;28;20290;-84
2021/03/09 02:53:11;;;;;;;62.60;31.80;;;4.60;93.90;;;;;;5074140;28;20032;-83
2021/03/09 02:55:37;;;;;;;65.43;30.77;;;4.50;93.80;;;;;;5075104;28;20027;-83
2021/03/09 02:58:07;;;;;;;64.93;33.03;;;4.60;93.80;;;;;;5057263;28;20024;-83
2021/03/09 03:00:33;;;;;;;64.10;31.50;;;4.60;93.90;;;;;;5073778;28;20020;-84
2021/03/09 03:03:00;;;;;;;66.20;30.60;;;4.60;93.90;;;;;;5073908;28;20047;-82
2021/03/09 03:05:26;;;;;;;66.97;30.77;;;4.60;94.00;;;;;;5073788;28;20108;-84
2021/03/09 03:07:53;;;;;;;63.97;31.70;;;4.60;94.00;;;;;;5074983;28;20043;-81
2021/03/09 03:10:20;;;;;;;71.67;33.70;;;4.60;94.00;;;;;;5074915;28;20028;-83
2021/03/09 03:12:48;;;;;;;62.30;31.73;;;4.60;94.00;;;;;;5073580;28;20023;-83
2021/03/09 03:15:15;;;;;;;62.87;30.63;;;4.60;93.90;;;;;;5074697;28;20020;-83
2021/03/09 03:17:44;;;;;;;76.23;34.03;;;4.70;93.90;;;;;;5074968;28;20075;-84
2021/03/09 03:20:14;;;;;;;65.50;34.67;;;4.70;94.00;;;;;;5074871;28;20433;-75
2021/03/09 03:22:41;;;;;;;70.40;35.13;;;4.70;93.90;;;;;;5073377;28;20038;-75
2021/03/09 03:25:09;;;;;;;69.37;34.73;;;4.80;93.90;;;;;;5074610;28;20468;-75
2021/03/09 03:27:37;;;;;;;67.67;35.20;;;4.70;93.90;;;;;;5056689;28;20024;-75
2021/03/09 03:30:07;;;;;;;72.17;36.17;;;4.70;93.80;;;;;;5074493;28;20036;-76
2021/03/09 03:32:34;;;;;;;71.97;36.87;;;4.70;93.90;;;;;;5074486;28;20112;-74
2021/03/09 03:35:00;;;;;;;75.30;38.23;;;4.70;93.80;;;;;;5074610;28;20051;-75
2021/03/09 03:37:26;;;;;;;76.67;38.83;;;4.70;93.80;;;;;;5073390;28;20388;-76
2021/03/09 03:39:52;;;;;;;75.87;37.47;;;4.70;93.90;;;;;;5073246;28;20052;-75
2021/03/09 03:42:18;;;;;;;77.30;39.00;;;4.80;94.20;;;;;;5072889;28;20082;-74
2021/03/09 03:44:43;;;;;;;80.20;40.53;;;4.80;93.90;;;;;;5072897;28;20031;-75
2021/03/09 03:47:09;;;;;;;79.37;41.57;;;4.70;93.90;;;;;;5039844;28;20020;-76
2021/03/09 03:49:35;;;;;;;82.43;41.47;;;4.80;93.90;;;;;;5072900;28;20508;-76
2021/03/09 03:52:17;;;;;;;90.63;44.80;;;4.80;94.10;;;;;;5072779;28;20031;-72
2021/03/09 03:55:26;;;;;;;86.70;42.77;;;4.70;94.10;;;;;;5074095;28;20036;-76
2021/03/09 03:57:59;;;;;;;87.93;42.47;;;4.80;94.10;;;;;;5068854;28;20484;-75
2021/03/09 04:00:26;;;;;;;84.40;44.63;;;4.70;94.10;;;;;;5072692;28;20016;-75
2021/03/09 04:02:52;;;;;;;90.67;44.23;;;4.70;94.20;;;;;;5056203;28;20472;-75
2021/03/09 04:05:21;;;;;;;86.47;44.67;;;4.70;94.30;;;;;;5056183;28;20032;-74
2021/03/09 04:07:49;;;;;;;88.70;42.10;;;4.80;94.30;;;;;;5072467;28;20024;-75
2021/03/09 04:10:15;;;;;;;95.67;45.50;;;4.70;94.30;;;;;;5056204;28;20021;-75
2021/03/09 04:12:42;;;;;;;92.77;46.80;;;4.70;94.30;;;;;;5072594;28;20400;-75
2021/03/09 04:15:10;;;;;;;98.47;48.40;;;4.80;94.40;;;;;;5056071;28;20036;-75
2021/03/09 04:17:37;;;;;;;92.10;47.07;;;4.70;94.40;;;;;;5055395;28;20488;-75
2021/03/09 04:20:05;;;;;;;91.10;44.37;;;4.70;94.40;;;;;;5072095;28;20114;-76
2021/03/09 04:22:32;;;;;;;94.67;45.90;;;4.80;94.50;;;;;;5072355;28;20403;-75
2021/03/09 04:24:58;;;;;;;103.33;50.23;;;4.80;94.60;;;;;;5073451;28;20116;-75
2021/03/09 04:27:25;;;;;;;104.80;49.50;;;4.70;94.50;;;;;;5072492;28;20036;-75
2021/03/09 04:29:54;;;;;;;92.03;43.77;;;4.70;94.50;;;;;;5072372;28;20353;-75
2021/03/09 04:32:20;;;;;;;92.63;45.57;;;4.80;94.60;;;;;;5071996;28;20028;-77
2021/03/09 04:34:47;;;;;;;96.43;48.33;;;4.80;94.60;;;;;;5055430;28;20140;-77
2021/03/09 04:37:13;;;;;;;101.80;50.17;;;4.70;94.70;;;;;;5055380;28;20037;-75
2021/03/09 04:39:44;;;;;;;90.70;46.17;;;4.70;94.80;;;;;;5071715;28;20036;-75
2021/03/09 04:42:10;;;;;;;104.67;49.60;;;4.70;94.70;;;;;;5073223;28;20457;-76
2021/03/09 04:44:37;;;;;;;97.10;48.83;;;4.70;94.80;;;;;;5071788;28;20039;-75
2021/03/09 04:47:04;;;;;;;99.97;50.63;;;4.80;94.90;;;;;;5054975;28;20140;-75
2021/03/09 04:49:35;;;;;;;100.57;48.37;;;4.80;95.10;;;;;;5055320;28;20029;-76
2021/03/09 04:52:01;;;;;;;91.53;46.80;;;4.80;94.90;;;;;;5054915;28;20028;-76
2021/03/09 04:54:27;;;;;;;103.67;51.13;;;4.80;94.90;;;;;;5071791;28;20461;-76
2021/03/09 04:56:53;;;;;;;108.33;53.73;;;4.80;95.00;;;;;;5071532;28;20028;-75
2021/03/09 04:59:19;;;;;;;93.63;47.40;;;4.80;95.00;;;;;;5055089;28;20492;-76
2021/03/09 05:01:45;;;;;;;103.83;52.20;;;4.80;94.90;;;;;;5059215;28;20103;-76
2021/03/09 05:04:11;;;;;;;120.70;56.70;;;4.80;94.90;;;;;;5053762;28;20025;-75
2021/03/09 05:06:38;;;;;;;118.33;58.67;;;4.80;95.00;;;;;;5054614;28;20116;-75
2021/03/09 05:09:04;;;;;;;120.20;57.83;;;4.80;95.00;;;;;;5054703;28;20025;-84
2021/03/09 05:11:30;;;;;;;121.07;58.97;;;4.80;94.90;;;;;;5054413;28;20040;-84
2021/03/09 05:13:57;;;;;;;121.67;59.10;;;4.80;95.00;;;;;;5070253;28;20043;-82
2021/03/09 05:16:23;;;;;;;112.67;56.80;;;4.80;95.00;;;;;;5037585;28;20025;-83
2021/03/09 05:18:49;;;;;;;118.30;58.37;;;4.80;94.90;;;;;;5072783;28;20032;-82
2021/03/09 05:21:15;;;;;;;110.80;55.77;;;4.80;95.00;;;;;;5072458;28;20056;-82
2021/03/09 05:23:41;;;;;;;119.70;58.83;;;4.80;94.90;;;;;;5054632;28;20036;-82
2021/03/09 05:26:06;;;;;;;110.57;54.00;;;4.90;94.90;;;;;;5054514;28;20119;-83
2021/03/09 05:28:32;;;;;;;116.93;57.60;;;4.80;94.90;;;;;;5053764;28;20060;-83
2021/03/09 05:30:59;;;;;;;125.80;58.60;;;4.90;95.20;;;;;;5054599;28;20064;-83
2021/03/09 05:33:25;;;;;;;120.93;59.03;;;4.90;95.00;;;;;;5072562;28;20029;-84
2021/03/09 05:35:51;;;;;;;116.37;55.97;;;4.90;94.90;;;;;;5072387;28;20082;-81
2021/03/09 05:38:16;;;;;;;118.73;58.73;;;4.80;94.90;;;;;;5037993;28;20039;-83
2021/03/09 05:40:42;;;;;;;112.83;58.60;;;4.90;94.90;;;;;;5045764;28;20415;-81
2021/03/09 05:43:09;;;;;;;121.63;61.27;;;4.90;94.80;;;;;;5035173;28;20037;-82
2021/03/09 05:45:36;;;;;;;123.13;60.37;;;5.00;94.90;;;;;;5057524;28;20056;-83
2021/03/09 05:48:02;;;;;;;120.93;57.80;;;4.90;94.80;;;;;;5072382;28;20074;-83
2021/03/09 05:50:27;;;;;;;124.53;60.57;;;4.90;94.90;;;;;;5071335;28;20028;-84
2021/03/09 05:52:53;;;;;;;122.77;61.53;;;4.90;94.80;;;;;;5053157;28;20024;-83
2021/03/09 05:55:19;;;;;;;127.80;64.40;;;4.90;94.80;;;;;;5072272;28;20032;-83
2021/03/09 05:57:44;;;;;;;133.00;66.07;;;4.90;94.90;;;;;;5071278;28;20463;-82
2021/03/09 06:00:12;;;;;;;140.00;67.50;;;4.90;94.90;;;;;;5071262;28;20039;-82
2021/03/09 06:02:38;;;;;;;141.80;70.40;;;4.90;95.20;;;;;;5071106;28;20055;-82
2021/03/09 06:05:05;;;;;;;132.97;68.10;;;4.90;94.80;;;;;;5071309;28;20064;-82
2021/03/09 06:07:30;;;;;;;128.43;66.07;;;4.90;94.90;;;;;;5054636;28;20031;-82
2021/03/09 06:09:56;;;;;;;130.17;66.33;;;5.00;94.70;;;;;;5064828;28;20100;-82
2021/03/09 06:12:27;;;;;;;132.07;67.17;;;5.00;94.80;;;;;;5034461;28;20127;-83
2021/03/09 06:14:55;;;;;;;145.30;71.73;;;5.00;94.80;;;;;;5052338;28;20044;-83
2021/03/09 06:17:26;;;;;;;139.63;69.67;;;5.00;94.80;;;;;;5050836;28;20098;-82
2021/03/09 06:19:52;;;;;;;147.20;72.00;;;5.00;94.80;;;;;;5050704;28;20049;-83
2021/03/09 06:22:19;;;;;;;158.97;75.47;;;5.00;95.10;;;;;;5052332;28;20124;-82
2021/03/09 06:24:47;;;;;;;151.13;73.90;;;5.10;94.90;;;;;;5054297;28;20036;-83
2021/03/09 06:27:42;;;;;;;151.90;73.17;;;5.10;94.80;;;;;;5071442;28;20043;-84
2021/03/09 06:30:11;;;;;;;138.40;68.33;;;5.20;94.90;;;;;;5070904;28;20041;-84
2021/03/09 06:32:45;;;;;;;162.17;73.93;;;5.10;94.90;;;;;;5069710;28;20025;-83
2021/03/09 06:35:31;;;;;;;;;;;5.10;94.90;;;;;;5070045;28;20024;-83
2021/03/09 06:38:17;;;;;;;140.40;69.00;;;5.10;95.00;;;;;;5063194;28;19936;-84
2021/03/09 06:41:16;;;;;;;142.67;70.53;;;5.10;94.90;;;;;;5067693;28;20099;-83
2021/03/09 06:44:05;;;;;;;141.53;68.83;;;5.10;94.90;;;;;;5066493;28;20017;-82
2021/03/09 06:46:45;;;;;;;141.33;72.73;;;5.10;95.00;;;;;;5063221;28;20040;-82
2021/03/09 06:49:10;;;;;;;141.70;67.40;;;5.10;95.00;;;;;;5061589;28;20017;-83
2021/03/09 06:51:37;;;;;;;141.60;72.17;;;5.10;94.90;;;;;;5055243;28;20469;-83
2021/03/09 06:54:04;;;;;;;130.43;67.97;;;5.10;95.00;;;;;;5067687;28;20021;-83
2021/03/09 06:56:31;;;;;;;131.00;68.83;;;5.20;95.00;;;;;;5058767;28;20116;-84
2021/03/09 06:59:15;;;;;;;140.73;68.90;;;5.20;95.10;;;;;;5065858;28;20041;-84
2021/03/09 07:01:41;;;;;;;134.65;63.65;;;5.20;95.10;;;;;;5060740;28;20085;-83
2021/03/09 07:04:20;;;;;;;125.67;65.33;;;5.20;95.00;;;;;;5040962;28;20060;-82
2021/03/09 07:06:46;;;;;;;142.47;67.90;;;5.20;95.10;;;;;;5056189;28;20036;-83
2021/03/09 07:09:12;;;;;;;143.23;67.13;;;5.30;95.10;;;;;;5062952;28;20381;-81
2021/03/09 07:11:39;;;;;;;133.67;69.10;;;5.30;95.20;;;;;;5060484;28;20045;-81
2021/03/09 07:14:05;;;;;;;121.97;61.23;;;5.30;95.20;;;;;;5063146;28;20531;-80
2021/03/09 07:16:33;;;;;;;120.40;60.40;;;5.30;95.10;;;;;;5054002;28;20035;-81
2021/03/09 07:19:00;;;;;;;119.90;61.67;;;5.30;95.20;;;;;;5070893;28;20476;-82
2021/03/09 07:21:30;;;;;;;116.00;60.47;;;5.30;95.10;;;;;;5069002;28;20075;-83
2021/03/09 07:23:59;;;;;;;111.83;58.43;;;5.40;95.10;;;;;;5068382;28;20090;-82
2021/03/09 07:26:26;;;;;;;102.73;54.47;;;5.40;95.20;;;;;;5064840;28;20012;-83
2021/03/09 07:28:52;;;;;;;96.87;49.70;;;5.40;95.10;;;;;;5056102;28;20023;-83
2021/03/09 07:31:25;;;;;;;103.50;50.83;;;5.40;95.20;;;;;;5061883;28;20061;-83
2021/03/09 07:33:53;;;;;;;94.77;47.67;;;5.50;95.10;;;;;;5054620;28;20087;-83
2021/03/09 07:36:20;;;;;;;83.63;43.80;;;5.50;95.00;;;;;;5067811;28;20063;-75
2021/03/09 07:38:48;;;;;;;83.00;41.60;;;5.50;95.10;;;;;;5072894;28;20052;-75
2021/03/09 07:41:15;;;;;;;79.70;41.67;;;5.60;95.10;;;;;;5056105;28;20457;-74
2021/03/09 07:43:41;;;;;;;87.33;44.83;;;5.60;95.10;;;;;;5047426;28;20081;-74
2021/03/09 07:46:09;;;;;;;88.87;43.73;;;5.60;95.30;;;;;;5068780;28;20028;-75
2021/03/09 07:48:36;;;;;;;84.97;42.77;;;5.70;95.40;;;;;;5056253;28;20025;-74
2021/03/09 07:51:04;;;;;;;82.50;42.33;;;5.70;95.70;;;;;;5055559;28;20024;-75
2021/03/09 07:53:30;;;;;;;79.63;41.93;;;5.70;95.40;;;;;;5060755;28;20484;-75
2021/03/09 07:56:07;;;;;;;82.53;42.43;;;5.80;95.40;;;;;;5053489;28;20032;-75
2021/03/09 07:58:33;;;;;;;79.33;40.70;;;5.80;95.50;;;;;;5063157;28;20021;-74
2021/03/09 08:01:06;;;;;;;80.17;40.87;;;5.80;95.50;;;;;;5048655;28;20021;-74
2021/03/09 08:03:34;;;;;;;75.57;38.03;;;5.90;95.50;;;;;;5068266;28;20028;-75
2021/03/09 08:06:01;;;;;;;72.17;38.30;;;5.90;95.50;;;;;;5048460;28;20283;-81
2021/03/09 08:08:45;;;;;;;70.93;38.13;;;6.00;95.60;;;;;;5058041;28;20057;-81
2021/03/09 08:11:14;;;;;;;75.33;38.27;;;6.10;95.50;;;;;;5060205;28;20028;-82
2021/03/09 08:13:40;;;;;;;69.67;36.77;;;6.10;95.50;;;;;;5065249;28;20029;-80
2021/03/09 08:16:21;;;;;;;68.13;36.83;;;6.10;95.50;;;;;;5058762;28;20033;-81
2021/03/09 08:18:51;;;;;;;72.10;34.97;;;6.20;95.40;;;;;;5073478;28;20067;-82
2021/03/09 08:21:18;;;;;;;61.33;33.43;;;6.20;95.50;;;;;;5064324;28;20040;-82
2021/03/09 08:23:53;;;;;;;66.27;35.27;;;6.30;95.50;;;;;;5056672;28;20029;-82
2021/03/09 08:26:22;;;;;;;63.47;32.53;;;6.30;95.40;;;;;;5055258;28;20059;-82
2021/03/09 08:28:48;;;;;;;59.40;32.17;;;6.30;95.40;;;;;;5073565;28;20021;-81
2021/03/09 08:31:16;;;;;;;56.53;30.63;;;6.40;95.50;;;;;;5072232;28;20031;-81
2021/03/09 08:33:47;;;;;;;50.90;27.13;;;6.40;95.40;;;;;;5071711;28;20028;-81
2021/03/09 08:36:26;;;;;;;48.77;25.23;;;6.50;95.40;;;;;;5069173;28;20488;-81
2021/03/09 08:39:11;;;;;;;38.70;20.70;;;6.60;95.40;;;;;;5053200;28;20389;-80
2021/03/09 08:41:37;;;;;;;35.53;19.23;;;6.70;95.40;;;;;;5052872;28;20063;-78
2021/03/09 08:47:06;;;;;;;29.67;14.37;;;6.70;95.10;;;;;;5071395;28;20137;-80
2021/03/09 08:52:02;;;;;;;25.57;12.97;;;6.80;94.80;;;;;;5073231;28;20051;-81
2021/03/09 08:54:38;;;;;;;24.33;11.13;;;6.80;94.70;;;;;;5072808;28;20107;-81
2021/03/09 08:57:17;;;;;;;23.00;10.60;;;6.90;94.70;;;;;;5071107;28;20382;-80
2021/03/09 08:59:48;;;;;;;17.30;9.40;;;7.00;94.80;;;;;;5071226;28;20036;-81
2021/03/09 09:02:23;;;;;;;21.87;8.93;;;7.00;94.30;;;;;;5071419;28;20044;-79
2021/03/09 09:05:03;;;;;;;21.77;8.93;;;7.00;94.20;;;;;;5054170;28;20025;-81
2021/03/09 09:07:31;;;;;;;12.80;6.67;;;7.10;94.10;;;;;;5066923;28;20024;-79
2021/03/09 09:10:08;;;;;;;13.50;6.97;;;7.10;94.00;;;;;;5066918;28;20052;-82
2021/03/09 09:12:39;;;;;;;16.23;7.37;;;7.20;93.90;;;;;;5066900;28;20021;-80
2021/03/09 09:15:07;;;;;;;17.30;7.23;;;7.20;93.80;;;;;;5072162;28;20032;-82
2021/03/09 09:17:34;;;;;;;14.90;6.67;;;7.20;93.70;;;;;;5054716;28;20036;-82
2021/03/09 09:20:03;;;;;;;14.03;6.03;;;7.30;93.70;;;;;;5072611;28;20149;-81
2021/03/09 09:22:29;;;;;;;15.00;6.53;;;7.30;93.60;;;;;;5071135;28;20043;-82
2021/03/09 09:24:57;;;;;;;12.93;6.07;;;7.30;93.50;;;;;;5071242;28;20024;-82
2021/03/09 09:27:23;;;;;;;16.00;5.93;;;7.30;93.40;;;;;;5064803;28;20033;-81
2021/03/09 09:29:56;;;;;;;10.77;5.03;;;7.50;93.50;;;;;;5053948;28;20029;-81
2021/03/09 09:32:23;;;;;;;10.53;4.80;;;7.50;93.40;;;;;;5051106;28;20033;-80
2021/03/09 09:34:59;;;;;;;9.63;4.70;;;7.60;93.40;;;;;;5034536;28;20033;-81
2021/03/09 09:37:25;;;;;;;10.57;3.87;;;7.70;93.30;;;;;;5051278;28;20118;-80
2021/03/09 09:39:51;;;;;;;9.97;3.80;;;7.80;93.10;;;;;;5051279;28;20068;-81
2021/03/09 09:42:18;;;;;;;9.00;3.50;;;7.90;92.70;;;;;;5052414;28;20068;-82
2021/03/09 09:44:45;;;;;;;8.20;3.10;;;8.00;92.50;;;;;;5054742;28;20071;-80
2021/03/09 09:47:13;;;;;;;7.97;2.97;;;8.00;92.20;;;;;;5072695;28;20036;-80
2021/03/09 09:49:41;;;;;;;4.90;2.57;;;8.00;91.70;;;;;;5071035;28;20523;-81
2021/03/09 09:52:18;;;;;;;5.17;2.80;;;8.00;91.70;;;;;;5071114;28;20152;-80
2021/03/09 09:54:52;;;;;;;9.40;3.00;;;8.10;91.70;;;;;;5070974;28;20036;-80
2021/03/09 09:57:18;;;;;;;7.85;2.83;;;8.10;91.20;;;;;;5070955;28;20036;-82
2021/03/09 09:59:44;;;;;;;8.13;2.53;;;8.10;90.80;;;;;;5072296;28;20033;-80
2021/03/09 10:02:19;;;;;;;5.33;2.37;;;8.00;90.60;;;;;;5072274;28;20418;-80
2021/03/09 10:04:44;;;;;;;6.23;2.30;;;8.10;90.70;;;;;;5072346;28;20115;-81
2021/03/09 10:07:15;;;;;;;6.77;2.10;;;8.10;90.80;;;;;;5050806;28;20021;-80
2021/03/09 10:09:41;;;;;;;5.17;2.53;;;8.20;90.60;;;;;;5070890;28;20029;-79
2021/03/09 10:12:07;;;;;;;4.83;1.80;;;8.30;90.70;;;;;;5070791;28;20369;-80
2021/03/09 10:14:33;;;;;;;7.00;2.23;;;8.30;90.20;;;;;;5071303;28;20089;-81
2021/03/09 10:17:00;;;;;;;6.13;1.53;;;8.30;90.20;;;;;;5071565;28;20033;-81
2021/03/09 10:19:34;;;;;;;7.23;2.13;;;8.20;90.10;;;;;;5049009;28;20037;-80
2021/03/09 10:22:00;;;;;;;4.93;2.10;;;8.20;90.00;;;;;;5037684;28;20033;-80
2021/03/09 10:24:31;;;;;;;4.73;1.93;;;8.10;89.70;;;;;;5054438;28;20074;-81
2021/03/09 10:26:59;;;;;;;5.87;2.30;;;8.10;89.80;;;;;;5042514;28;20115;-81
2021/03/09 10:29:27;;;;;;;6.40;2.57;;;8.00;90.00;;;;;;5055795;28;20055;-80
2021/03/09 10:31:59;;;;;;;6.50;2.30;;;7.90;90.00;;;;;;5061488;28;20032;-79
2021/03/09 10:34:42;;;;;;;9.07;3.50;;;7.90;90.10;;;;;;5075626;28;20383;-80
2021/03/09 10:37:12;;;;;;;4.83;2.70;;;7.90;90.20;;;;;;5063743;28;20024;-80
2021/03/09 10:39:51;;;;;;;6.70;2.60;;;7.80;90.30;;;;;;5074300;28;20484;-80
2021/03/09 10:42:49;;;;;;;4.67;2.20;;;7.80;90.40;;;;;;5075155;28;20033;-79
2021/03/09 10:45:15;;;;;;;4.00;1.87;;;7.80;90.60;;;;;;5073560;28;20024;-80
2021/03/09 10:47:41;;;;;;;6.23;2.00;;;7.80;90.60;;;;;;5075000;28;20342;-80
2021/03/09 10:50:08;;;;;;;3.17;1.30;;;7.80;90.50;;;;;;5074200;28;20031;-80
2021/03/09 10:52:34;;;;;;;4.17;1.40;;;7.80;90.40;;;;;;5075436;28;20110;-79
2021/03/09 10:54:59;;;;;;;5.27;1.10;;;7.80;90.30;;;;;;5075411;28;20059;-80
2021/03/09 10:57:25;;;;;;;6.07;1.00;;;7.80;90.20;;;;;;5057285;28;20077;-81
2021/03/09 10:59:50;;;;;;;3.33;1.13;;;7.90;90.10;;;;;;5065415;28;20043;-80
2021/03/09 11:02:16;;;;;;;4.17;1.20;;;7.90;90.10;;;;;;5075707;28;20109;-80
2021/03/09 11:04:42;;;;;;;3.53;1.00;;;7.90;90.00;;;;;;5057239;28;20029;-80
2021/03/09 11:07:07;;;;;;;2.27;0.80;;;7.90;90.00;;;;;;5073635;28;20021;-79
2021/03/09 11:09:33;;;;;;;1.80;0.80;;;8.00;89.80;;;;;;5056667;28;20081;-81
2021/03/09 11:11:59;;;;;;;3.60;1.00;;;7.90;89.80;;;;;;5067852;28;20032;-79
2021/03/09 11:14:25;;;;;;;3.33;0.80;;;8.00;89.90;;;;;;5066529;28;20025;-81
2021/03/09 11:16:50;;;;;;;2.53;0.93;;;8.00;89.50;;;;;;5059265;28;20492;-80
2021/03/09 11:19:16;;;;;;;5.43;0.90;;;8.00;89.40;;;;;;5068906;28;20020;-82
2021/03/09 11:21:42;;;;;;;5.73;1.00;;;8.00;89.30;;;;;;5073201;28;20480;-80
2021/03/09 11:24:08;;;;;;;3.37;0.90;;;8.00;89.10;;;;;;5074428;28;20111;-77
2021/03/09 11:26:34;;;;;;;5.93;0.90;;;8.10;89.20;;;;;;5072910;28;20031;-79
2021/03/09 11:29:00;;;;;;;2.67;1.10;;;8.10;90.00;;;;;;5073153;28;20029;-79
2021/03/09 11:31:25;;;;;;;3.73;1.00;;;8.20;89.20;;;;;;5073455;28;20085;-80
2021/03/09 11:33:53;;;;;;;5.53;1.07;;;8.20;89.10;;;;;;5056456;28;20392;-79
2021/03/09 11:36:18;;;;;;;2.00;1.00;;;8.30;89.20;;;;;;5073189;28;20020;-80
2021/03/09 11:38:45;;;;;;;1.80;1.10;;;8.40;88.60;;;;;;5072824;28;20051;-80
2021/03/09 11:41:12;;;;;;;2.10;0.83;;;8.40;88.60;;;;;;5074295;28;20103;-79
2021/03/09 11:43:39;;;;;;;7.60;1.10;;;8.50;87.60;;;;;;5074236;28;20380;-80
2021/03/09 11:46:05;;;;;;;4.50;1.37;;;8.50;87.20;;;;;;5074278;28;20491;-79
2021/03/09 11:48:31;;;;;;;3.27;0.93;;;8.50;86.70;;;;;;5072915;28;20033;-79
2021/03/09 11:50:57;;;;;;;2.43;0.70;;;8.40;86.60;;;;;;5072862;28;20075;-82
2021/03/09 11:53:22;;;;;;;3.63;0.87;;;8.30;85.60;;;;;;5073862;28;20511;-79
2021/03/09 11:55:48;;;;;;;0.80;0.40;;;8.20;86.20;;;;;;5072678;28;20059;-80
2021/03/09 11:58:13;;;;;;;2.30;1.07;;;8.10;86.50;;;;;;5055934;28;20025;-79
2021/03/09 12:00:39;;;;;;;1.70;0.40;;;8.00;86.80;;;;;;5056215;28;20025;-79
2021/03/09 12:03:05;;;;;;;1.00;0.40;;;7.90;87.00;;;;;;5073976;28;20553;-79
2021/03/09 12:05:31;;;;;;;1.10;0.43;;;7.90;87.10;;;;;;5056183;28;20056;-79
2021/03/09 12:07:57;;;;;;;1.67;0.50;;;7.90;87.10;;;;;;5052320;28;20132;-80
2021/03/09 12:10:23;;;;;;;1.90;0.60;;;7.80;87.40;;;;;;5065116;28;20536;-79
2021/03/09 12:12:48;;;;;;;2.00;0.60;;;7.90;87.60;;;;;;5062625;28;20396;-79
2021/03/09 12:15:14;;;;;;;1.50;0.70;;;7.90;87.80;;;;;;5052821;28;20041;-79
2021/03/09 12:17:40;;;;;;;1.70;0.50;;;8.00;87.80;;;;;;5052843;28;20059;-79
2021/03/09 12:20:07;;;;;;;2.70;0.60;;;8.00;88.00;;;;;;5059583;28;20048;-79
2021/03/09 12:22:32;;;;;;;1.80;0.50;;;8.20;88.10;;;;;;5060391;28;20497;-79
2021/03/09 12:24:58;;;;;;;2.00;0.50;;;8.30;87.60;;;;;;5066408;28;20067;-79
2021/03/09 12:27:24;;;;;;;0.73;0.40;;;8.40;87.30;;;;;;5041615;28;20028;-79
2021/03/09 12:29:49;;;;;;;3.17;0.50;;;8.50;87.20;;;;;;5051977;28;20025;-79
2021/03/09 12:32:15;;;;;;;3.40;0.43;;;8.60;86.40;;;;;;5051837;28;20473;-79
2021/03/09 12:34:41;;;;;;;1.10;0.50;;;8.60;85.90;;;;;;5052232;28;20171;-79
2021/03/09 12:37:07;;;;;;;1.67;0.40;;;8.70;86.20;;;;;;5052813;28;20071;-78
2021/03/09 12:39:33;;;;;;;0.77;0.40;;;8.60;84.40;;;;;;5035009;28;20040;-79
2021/03/09 12:41:59;;;;;;;3.90;0.50;;;8.70;83.70;;;;;;5053118;28;20029;-79
2021/03/09 12:44:25;;;;;;;3.37;0.60;;;8.70;83.80;;;;;;5052168;28;20060;-79
2021/03/09 12:46:51;;;;;;;1.67;0.33;;;8.70;84.30;;;;;;5053180;28;20075;-79
2021/03/09 12:49:17;;;;;;;2.10;0.40;;;8.80;84.40;;;;;;5051966;28;20120;-79
2021/03/09 12:51:42;;;;;;;1.90;0.57;;;8.70;83.80;;;;;;5051959;28;20033;-80
2021/03/09 12:54:08;;;;;;;1.70;0.60;;;8.70;83.80;;;;;;5052071;28;20033;-79